createdAt,value
2023-03-05T00:01:19.022Z,8.90
2023-03-05T00:03:47.623Z,5.67
2023-03-05T00:06:17.433Z,9.47
2023-03-05T00:08:45.784Z,6.13
2023-03-05T00:11:14.531Z,7.40
2023-03-05T00:13:42.803Z,8.27
2023-03-05T00:16:13.049Z,5.57
2023-03-05T00:18:43.049Z,7.17
2023-03-05T00:21:19.680Z,6.57
2023-03-05T00:23:48.316Z,6.17
2023-03-05T00:26:16.588Z,6.17
2023-03-05T00:28:47.458Z,9.27
2023-03-05T00:31:15.758Z,6.53
2023-03-05T00:33:45.480Z,8.90
2023-03-05T00:36:13.887Z,11.03
2023-03-05T00:38:42.213Z,7.97
2023-03-05T00:41:10.482Z,9.53
2023-03-05T00:43:39.446Z,9.37
2023-03-05T00:46:07.785Z,9.53
2023-03-05T00:48:36.227Z,8.10
2023-03-05T00:51:06.498Z,7.57
2023-03-05T00:53:34.810Z,6.77
2023-03-05T00:56:03.053Z,8.53
2023-03-05T00:58:31.277Z,6.00
2023-03-05T01:01:00.370Z,6.37
2023-03-05T01:03:29.264Z,8.50
2023-03-05T01:05:58.803Z,6.70
2023-03-05T01:08:29.040Z,8.40
2023-03-05T01:10:57.346Z,9.63
2023-03-05T01:13:25.622Z,9.57
2023-03-05T01:15:54.018Z,9.50
2023-03-05T01:18:24.743Z,7.83
2023-03-05T01:20:53.164Z,9.40
2023-03-05T01:23:21.776Z,8.63
2023-03-05T01:25:56.454Z,11.57
2023-03-05T01:28:24.841Z,6.70
2023-03-05T01:30:53.095Z,5.93
2023-03-05T01:33:21.626Z,12.27
2023-03-05T01:35:50.647Z,8.47
2023-03-05T01:38:19.641Z,7.00
2023-03-05T01:40:48.008Z,9.77
2023-03-05T01:43:29.890Z,9.33
2023-03-05T01:46:24.815Z,9.77
2023-03-05T01:48:57.399Z,8.17
2023-03-05T01:51:28.213Z,8.47
2023-03-05T01:53:59.361Z,7.63
2023-03-05T01:56:29.571Z,9.83
2023-03-05T01:59:04.331Z,8.57
2023-03-05T02:01:39.933Z,8.53
2023-03-05T02:04:10.176Z,7.27
2023-03-05T02:06:40.031Z,7.80
2023-03-05T02:09:08.323Z,7.67
2023-03-05T02:11:37.108Z,8.00
2023-03-05T02:14:10.206Z,7.23
2023-03-05T02:16:40.138Z,8.23
2023-03-05T02:19:12.025Z,6.47
2023-03-05T02:21:43.794Z,6.07
2023-03-05T02:24:16.787Z,9.90
2023-03-05T02:26:46.333Z,8.13
2023-03-05T02:29:19.556Z,8.80
2023-03-05T02:31:47.859Z,8.30
2023-03-05T02:34:16.604Z,6.40
2023-03-05T02:36:46.774Z,9.73
2023-03-05T02:39:15.247Z,10.07
2023-03-05T02:41:43.659Z,10.70
2023-03-05T02:44:12.588Z,8.77
2023-03-05T02:46:40.958Z,10.00
2023-03-05T02:49:09.577Z,7.77
2023-03-05T02:51:38.889Z,10.07
2023-03-05T02:54:09.520Z,8.70
2023-03-05T02:56:39.683Z,9.33
2023-03-05T02:59:08.348Z,11.10
2023-03-05T03:01:36.681Z,9.60
2023-03-05T03:04:05.073Z,10.10
2023-03-05T03:06:33.289Z,11.83
2023-03-05T03:09:01.508Z,10.10
2023-03-05T03:11:31.133Z,15.17
2023-03-05T03:14:00.991Z,11.97
2023-03-05T03:16:29.329Z,13.93
2023-03-05T03:18:57.661Z,10.23
2023-03-05T03:21:27.333Z,11.40
2023-03-05T03:23:55.999Z,10.10
2023-03-05T03:26:24.335Z,9.67
2023-03-05T03:28:54.082Z,10.77
2023-03-05T03:31:22.641Z,8.63
2023-03-05T03:33:50.882Z,12.83
2023-03-05T03:36:19.134Z,12.03
2023-03-05T03:38:47.352Z,12.17
2023-03-05T03:41:15.872Z,11.33
2023-03-05T03:43:44.116Z,12.00
2023-03-05T03:46:13.754Z,13.97
2023-03-05T03:48:42.079Z,14.90
2023-03-05T03:51:10.404Z,8.80
2023-03-05T03:53:38.871Z,8.70
2023-03-05T03:56:07.655Z,10.40
2023-03-05T03:58:35.954Z,10.50
2023-03-05T04:01:04.211Z,9.40
2023-03-05T04:03:33.844Z,13.97
2023-03-05T04:06:02.301Z,8.63
2023-03-05T04:08:30.547Z,8.87
2023-03-05T04:10:58.763Z,8.27
2023-03-05T04:13:26.979Z,8.83
2023-03-05T04:15:55.500Z,8.80
2023-03-05T04:18:24.108Z,10.07
2023-03-05T04:20:53.747Z,9.50
2023-03-05T04:23:22.032Z,9.57
2023-03-05T04:25:50.287Z,10.83
2023-03-05T04:28:18.811Z,9.83
2023-03-05T04:30:47.163Z,9.67
2023-03-05T04:33:15.495Z,10.60
2023-03-05T04:35:44.339Z,7.83
2023-03-05T04:38:14.132Z,10.23
2023-03-05T04:40:42.372Z,12.80
2023-03-05T04:43:10.593Z,12.97
2023-03-05T04:45:40.785Z,10.70
2023-03-05T04:48:10.624Z,10.97
2023-03-05T04:50:39.217Z,9.33
2023-03-05T04:53:08.018Z,13.73
2023-03-05T04:55:37.623Z,12.77
2023-03-05T04:58:05.867Z,11.10
2023-03-05T05:00:34.073Z,10.10
2023-03-05T05:03:04.533Z,10.17
2023-03-05T05:05:32.853Z,8.00
2023-03-05T05:08:01.096Z,9.43
2023-03-05T05:10:29.296Z,11.27
2023-03-05T05:12:58.989Z,10.67
2023-03-05T05:15:27.262Z,12.73
2023-03-05T05:17:55.494Z,11.77
2023-03-05T05:20:23.940Z,12.83
2023-03-05T05:22:52.184Z,10.20
2023-03-05T05:25:20.485Z,12.87
2023-03-05T05:27:48.817Z,11.40
2023-03-05T05:30:18.798Z,10.03
2023-03-05T05:32:47.092Z,12.73
2023-03-05T05:35:15.289Z,10.93
2023-03-05T05:37:43.638Z,10.17
2023-03-05T05:40:13.156Z,10.90
2023-03-05T05:42:41.417Z,10.93
2023-03-05T05:45:11.177Z,11.53
2023-03-05T05:47:40.872Z,11.33
2023-03-05T05:50:10.077Z,15.63
2023-03-05T05:52:38.799Z,16.37
2023-03-05T05:55:08.279Z,9.60
2023-03-05T05:57:36.537Z,13.60
2023-03-05T06:00:06.578Z,14.80
2023-03-05T06:02:41.658Z,14.53
2023-03-05T06:05:13.236Z,15.33
2023-03-05T06:07:41.503Z,11.07
2023-03-05T06:10:11.693Z,15.27
2023-03-05T06:12:40.083Z,14.60
2023-03-05T06:15:09.344Z,19.70
2023-03-05T06:17:37.941Z,18.50
2023-03-05T06:20:08.943Z,16.77
2023-03-05T06:22:38.617Z,19.07
2023-03-05T06:25:08.273Z,16.03
2023-03-05T06:27:37.157Z,15.90
2023-03-05T06:30:06.612Z,14.47
2023-03-05T06:32:35.101Z,17.53
2023-03-05T06:35:03.870Z,14.83
2023-03-05T06:37:34.766Z,14.23
2023-03-05T06:40:03.141Z,14.40
2023-03-05T06:42:31.383Z,16.60
2023-03-05T06:45:02.266Z,20.43
2023-03-05T06:47:30.500Z,15.63
2023-03-05T06:49:58.684Z,17.53
2023-03-05T06:52:26.999Z,20.60
2023-03-05T06:54:56.830Z,17.33
2023-03-05T06:57:25.172Z,16.47
2023-03-05T06:59:53.402Z,15.77
2023-03-05T07:02:21.659Z,15.43
2023-03-05T07:04:49.909Z,20.77
2023-03-05T07:07:18.161Z,19.83
2023-03-05T07:09:48.119Z,16.23
2023-03-05T07:12:17.715Z,16.77
2023-03-05T07:14:46.124Z,16.97
2023-03-05T07:17:15.339Z,19.43
2023-03-05T07:19:43.884Z,19.70
2023-03-05T07:22:12.236Z,17.43
2023-03-05T07:24:41.162Z,18.00
2023-03-05T07:27:09.415Z,17.43
2023-03-05T07:29:39.630Z,15.63
2023-03-05T07:32:08.382Z,16.30
2023-03-05T07:34:38.936Z,17.63
2023-03-05T07:37:07.294Z,17.47
2023-03-05T07:39:35.516Z,16.73
2023-03-05T07:42:03.804Z,19.20
2023-03-05T07:44:50.112Z,17.70
2023-03-05T07:47:18.519Z,12.27
2023-03-05T07:49:46.862Z,10.00
2023-03-05T07:52:15.186Z,9.93
2023-03-05T07:54:43.833Z,9.30
2023-03-05T07:57:13.552Z,7.73
2023-03-05T07:59:43.167Z,8.27
2023-03-05T08:02:14.117Z,8.60
2023-03-05T08:04:43.319Z,0.50
2023-03-05T08:07:11.827Z,0.50
2023-03-05T08:09:42.803Z,0.37
2023-03-05T08:12:11.524Z,0.30
2023-03-05T08:14:40.188Z,0.20
2023-03-05T08:17:08.694Z,0.40
2023-03-05T08:19:38.352Z,0.20
2023-03-05T08:22:06.675Z,2.87
2023-03-05T08:24:34.993Z,0.27
2023-03-05T08:27:03.272Z,0.63
2023-03-05T08:29:31.699Z,0.50
2023-03-05T08:32:00.207Z,0.40
2023-03-05T08:34:28.497Z,0.37
2023-03-05T08:36:58.086Z,0.50
2023-03-05T08:39:26.958Z,0.30
2023-03-05T08:41:55.194Z,0.80
2023-03-05T08:44:23.441Z,0.30
2023-03-05T08:46:51.666Z,0.87
2023-03-05T08:49:19.924Z,0.53
2023-03-05T08:51:48.487Z,0.93
2023-03-05T08:54:18.250Z,0.63
2023-03-05T08:56:46.813Z,0.57
2023-03-05T08:59:15.070Z,0.57
2023-03-05T09:01:43.435Z,0.70
2023-03-05T09:04:11.730Z,0.30
2023-03-05T09:06:40.561Z,0.63
2023-03-05T09:09:10.033Z,0.87
2023-03-05T09:11:40.631Z,0.30
2023-03-05T09:14:09.307Z,0.20
2023-03-05T09:16:40.571Z,0.67
2023-03-05T09:19:10.645Z,0.30
2023-03-05T09:21:40.005Z,0.20
2023-03-05T09:24:08.852Z,0.30
2023-03-05T09:26:37.082Z,0.50
2023-03-05T09:29:08.580Z,3.40
2023-03-05T09:31:36.889Z,0.83
2023-03-05T09:34:06.104Z,0.30
2023-03-05T09:36:34.404Z,0.20
2023-03-05T09:39:04.052Z,0.80
2023-03-05T09:41:52.678Z,0.20
2023-03-05T09:44:33.357Z,2.13
2023-03-05T09:47:14.806Z,0.23
2023-03-05T09:49:52.046Z,1.23
2023-03-05T09:52:24.389Z,0.20
2023-03-05T09:54:56.635Z,0.63
2023-03-05T09:57:30.138Z,0.40
2023-03-05T10:00:02.498Z,0.23
2023-03-05T10:02:49.105Z,0.60
2023-03-05T10:05:21.755Z,0.63
2023-03-05T10:07:56.479Z,0.70
2023-03-05T10:10:28.134Z,0.80
2023-03-05T10:13:00.195Z,0.30
2023-03-05T10:15:38.243Z,0.33
2023-03-05T10:18:19.673Z,0.20
2023-03-05T10:20:57.867Z,0.60
2023-03-05T10:23:49.214Z,0.20
2023-03-05T10:26:35.246Z,0.37
2023-03-05T10:29:16.764Z,0.20
2023-03-05T10:32:01.648Z,0.30
2023-03-05T10:34:44.721Z,0.50
2023-03-05T10:37:28.808Z,0.30
2023-03-05T10:40:09.791Z,0.20
2023-03-05T10:42:45.063Z,0.30
2023-03-05T10:45:19.088Z,0.23
2023-03-05T10:47:52.750Z,0.40
2023-03-05T10:50:23.697Z,1.93
2023-03-05T10:53:02.555Z,0.33
2023-03-05T10:55:30.840Z,0.33
2023-03-05T10:57:59.119Z,0.20
2023-03-05T11:00:28.916Z,0.83
2023-03-05T11:03:01.474Z,1.27
2023-03-05T11:05:48.388Z,0.50
2023-03-05T11:08:27.699Z,0.87
2023-03-05T11:11:17.112Z,0.20
2023-03-05T11:13:54.715Z,0.30
2023-03-05T11:16:25.345Z,0.20
2023-03-05T11:19:19.112Z,0.20
2023-03-05T11:21:48.498Z,0.20
2023-03-05T11:24:19.332Z,0.20
2023-03-05T11:26:50.534Z,0.47
2023-03-05T11:29:22.627Z,0.30
2023-03-05T11:31:51.841Z,0.20
2023-03-05T11:34:30.273Z,0.33
2023-03-05T11:37:06.121Z,1.07
2023-03-05T11:39:38.404Z,0.30
2023-03-05T11:42:11.698Z,0.30
2023-03-05T11:44:47.937Z,0.20
2023-03-05T11:47:27.216Z,0.40
2023-03-05T11:50:03.426Z,0.20
2023-03-05T11:52:35.445Z,0.47
2023-03-05T11:55:08.539Z,0.20
2023-03-05T11:57:45.311Z,0.23
2023-03-05T12:00:17.191Z,0.30
2023-03-05T12:02:46.921Z,0.37
2023-03-05T12:05:18.176Z,0.60
2023-03-05T12:07:50.566Z,1.50
2023-03-05T12:10:21.349Z,0.20
2023-03-05T12:12:58.123Z,0.87
2023-03-05T12:15:56.978Z,0.20
2023-03-05T12:18:32.768Z,0.30
2023-03-05T12:21:08.029Z,0.40
2023-03-05T12:23:48.211Z,0.30
2023-03-05T12:26:16.494Z,0.20
2023-03-05T12:28:57.249Z,0.20
2023-03-05T12:31:45.531Z,0.20
2023-03-05T12:34:48.223Z,2.47
2023-03-05T12:37:57.517Z,0.20
2023-03-05T12:40:27.396Z,0.20
2023-03-05T12:43:00.417Z,0.20
2023-03-05T12:45:39.267Z,0.20
2023-03-05T12:48:43.074Z,0.20
2023-03-05T12:51:28.156Z,0.20
2023-03-05T12:53:58.596Z,0.57
2023-03-05T12:56:32.724Z,0.20
2023-03-05T12:59:02.920Z,2.30
2023-03-05T13:01:42.017Z,0.30
2023-03-05T13:04:19.710Z,0.20
2023-03-05T13:06:48.543Z,0.40
2023-03-05T13:09:27.629Z,0.47
2023-03-05T13:11:57.393Z,0.40
2023-03-05T13:14:37.041Z,0.30
2023-03-05T13:17:28.162Z,0.20
2023-03-05T13:19:58.327Z,0.40
2023-03-05T13:22:26.882Z,0.20
2023-03-05T13:25:16.714Z,0.70
2023-03-05T13:27:45.044Z,1.13
2023-03-05T13:30:22.939Z,0.20
2023-03-05T13:32:53.422Z,0.20
2023-03-05T13:35:22.580Z,0.20
2023-03-05T13:37:51.212Z,0.50
2023-03-05T13:40:24.192Z,0.27
2023-03-05T13:42:54.235Z,0.93
2023-03-05T13:45:27.977Z,0.20
2023-03-05T13:47:58.750Z,0.20
2023-03-05T13:50:30.926Z,0.30
2023-03-05T13:53:16.865Z,1.90
2023-03-05T13:55:47.112Z,0.40
2023-03-05T13:58:47.363Z,0.40
2023-03-05T14:01:32.372Z,0.20
2023-03-05T14:04:06.179Z,0.20
2023-03-05T14:06:43.583Z,0.20
2023-03-05T14:09:21.128Z,0.20
2023-03-05T14:12:00.495Z,0.30
2023-03-05T14:14:32.049Z,0.20
2023-03-05T14:17:31.930Z,0.77
2023-03-05T14:20:24.056Z,0.20
2023-03-05T14:22:54.217Z,0.20
2023-03-05T14:25:33.836Z,0.20
2023-03-05T14:28:29.274Z,0.20
2023-03-05T14:30:58.510Z,1.00
2023-03-05T14:33:29.858Z,0.40
2023-03-05T14:35:59.376Z,0.47
2023-03-05T14:38:30.926Z,0.20
2023-03-05T14:40:59.177Z,0.20
2023-03-05T14:43:28.782Z,0.30
2023-03-05T14:45:57.036Z,0.33
2023-03-05T14:48:25.382Z,0.50
2023-03-05T14:50:57.202Z,0.20
2023-03-05T14:53:28.366Z,0.87
2023-03-05T14:55:58.112Z,0.40
2023-03-05T14:58:29.681Z,0.27
2023-03-05T15:00:58.238Z,0.40
2023-03-05T15:03:28.056Z,0.40
2023-03-05T15:05:58.566Z,1.40
2023-03-05T15:08:28.994Z,0.63
2023-03-05T15:10:57.522Z,0.43
2023-03-05T15:13:26.133Z,0.40
2023-03-05T15:15:56.435Z,6.27
2023-03-05T15:18:24.785Z,7.87
2023-03-05T15:20:53.261Z,6.13
2023-03-05T15:23:21.788Z,4.37
2023-03-05T15:25:50.329Z,5.00
2023-03-05T15:28:18.967Z,6.50
2023-03-05T15:30:48.564Z,5.27
2023-03-05T15:33:18.727Z,7.37
2023-03-05T15:35:47.171Z,8.90
2023-03-05T15:38:16.168Z,6.20
2023-03-05T15:40:46.024Z,5.60
2023-03-05T15:43:14.495Z,6.87
2023-03-05T15:45:43.205Z,7.37
2023-03-05T15:48:11.515Z,7.13
2023-03-05T15:50:43.396Z,6.80
2023-03-05T15:53:15.668Z,7.50
2023-03-05T15:55:45.866Z,6.17
2023-03-05T15:58:17.205Z,6.53
2023-03-05T16:00:47.456Z,6.73
2023-03-05T16:03:16.178Z,6.00
2023-03-05T16:05:45.844Z,7.57
2023-03-05T16:08:14.177Z,7.53
2023-03-05T16:10:43.136Z,9.77
2023-03-05T16:13:14.602Z,9.70
2023-03-05T16:15:44.318Z,8.33
2023-03-05T16:18:15.517Z,8.07
2023-03-05T16:20:45.728Z,7.40
2023-03-05T16:23:14.144Z,10.67
2023-03-05T16:25:43.006Z,9.17
2023-03-05T16:28:11.592Z,9.10
2023-03-05T16:30:41.012Z,9.70
2023-03-05T16:33:09.780Z,6.90
2023-03-05T16:35:38.394Z,6.50
2023-03-05T16:38:08.492Z,8.50
2023-03-05T16:41:05.488Z,7.73
2023-03-05T16:43:26.457Z,7.40
2023-03-05T16:45:54.959Z,7.60
2023-03-05T16:48:23.193Z,9.83
2023-03-05T16:50:51.582Z,7.73
2023-03-05T16:53:21.215Z,7.50
2023-03-05T16:55:49.441Z,9.07
2023-03-05T16:58:17.694Z,7.17
2023-03-05T17:00:46.479Z,13.00
2023-03-05T17:03:14.794Z,8.53
2023-03-05T17:05:43.541Z,10.27
2023-03-05T17:08:11.892Z,10.97
2023-03-05T17:10:43.714Z,12.73
2023-03-05T17:13:12.025Z,12.03
2023-03-05T17:15:44.576Z,12.77
2023-03-05T17:18:13.133Z,14.03
2023-03-05T17:20:42.305Z,14.17
2023-03-05T17:23:10.535Z,13.43
2023-03-05T17:25:40.913Z,12.73
2023-03-05T17:28:09.168Z,14.83
2023-03-05T17:30:38.075Z,12.80
2023-03-05T17:33:07.186Z,11.67
2023-03-05T17:35:35.930Z,13.23
2023-03-05T17:38:04.402Z,12.73
2023-03-05T17:40:33.323Z,10.17
2023-03-05T17:43:03.738Z,12.37
2023-03-05T17:45:32.425Z,14.47
2023-03-05T17:48:00.722Z,10.97
2023-03-05T17:50:29.048Z,11.60
2023-03-05T17:52:57.518Z,12.73
2023-03-05T17:55:26.190Z,10.10
2023-03-05T17:57:54.867Z,11.23
2023-03-05T18:00:26.935Z,14.93
2023-03-05T18:02:55.905Z,14.97
2023-03-05T18:05:25.579Z,9.87
2023-03-05T18:07:55.856Z,11.73
2023-03-05T18:10:27.124Z,13.13
2023-03-05T18:12:56.202Z,11.77
2023-03-05T18:15:27.279Z,12.10
2023-03-05T18:17:55.924Z,13.87
2023-03-05T18:20:29.848Z,10.17
2023-03-05T18:22:58.720Z,12.50
2023-03-05T18:25:31.060Z,13.73
2023-03-05T18:28:00.601Z,12.57
2023-03-05T18:30:31.027Z,10.83
2023-03-05T18:32:59.704Z,10.27
2023-03-05T18:35:29.200Z,12.50
2023-03-05T18:37:57.877Z,10.93
2023-03-05T18:40:30.230Z,13.57
2023-03-05T18:43:00.961Z,12.60
2023-03-05T18:45:51.891Z,14.03
2023-03-05T18:48:20.452Z,17.60
2023-03-05T18:50:51.105Z,17.47
2023-03-05T18:53:20.154Z,16.20
2023-03-05T18:55:49.711Z,18.33
2023-03-05T18:58:19.436Z,22.43
2023-03-05T19:00:48.610Z,17.97
2023-03-05T19:03:19.779Z,22.43
2023-03-05T19:05:50.227Z,23.70
2023-03-05T19:08:19.029Z,22.23
2023-03-05T19:10:47.476Z,22.50
2023-03-05T19:13:40.837Z,18.27
2023-03-05T19:16:30.465Z,20.43
2023-03-05T19:19:24.640Z,19.83
2023-03-05T19:21:55.161Z,15.97
2023-03-05T19:24:24.647Z,25.33
2023-03-05T19:26:55.338Z,18.17
2023-03-05T19:29:24.207Z,18.23
2023-03-05T19:31:52.643Z,19.20
2023-03-05T19:34:22.494Z,22.57
2023-03-05T19:36:50.945Z,21.90
2023-03-05T19:39:19.784Z,19.53
2023-03-05T19:41:48.095Z,19.13
2023-03-05T19:44:16.613Z,20.17
2023-03-05T19:46:44.914Z,23.40
2023-03-05T19:49:13.289Z,18.80
2023-03-05T19:51:45.233Z,16.63
2023-03-05T19:54:14.954Z,23.30
2023-03-05T19:56:44.758Z,20.90
2023-03-05T19:59:16.451Z,16.30
2023-03-05T20:01:45.566Z,19.03
2023-03-05T20:04:15.452Z,17.43
2023-03-05T20:06:45.487Z,21.47
2023-03-05T20:09:14.377Z,19.07
2023-03-05T20:11:43.054Z,19.17
2023-03-05T20:14:13.069Z,23.53
2023-03-05T20:16:43.310Z,18.77
2023-03-05T20:19:17.333Z,16.50
2023-03-05T20:21:47.270Z,18.33
2023-03-05T20:24:18.691Z,19.60
2023-03-05T20:26:48.510Z,22.40
2023-03-05T20:29:18.685Z,19.83
2023-03-05T20:31:49.987Z,20.67
2023-03-05T20:34:21.904Z,22.10
2023-03-05T20:36:51.561Z,19.90
2023-03-05T20:39:19.882Z,22.20
2023-03-05T20:41:49.319Z,25.30
2023-03-05T20:44:17.900Z,21.10
2023-03-05T20:47:40.967Z,24.53
2023-03-05T20:50:11.095Z,25.17
2023-03-05T20:52:41.258Z,25.47
2023-03-05T20:55:11.458Z,23.83
2023-03-05T20:57:42.029Z,22.17
2023-03-05T21:00:12.364Z,26.80
2023-03-05T21:02:41.887Z,21.10
2023-03-05T21:05:10.822Z,24.93
2023-03-05T21:07:40.477Z,24.37
2023-03-05T21:10:09.282Z,22.37
2023-03-05T21:12:37.973Z,23.00
2023-03-05T21:15:07.776Z,23.40
2023-03-05T21:17:36.065Z,22.03
2023-03-05T21:20:05.920Z,25.17
2023-03-05T21:22:34.470Z,27.70
2023-03-05T21:25:21.988Z,26.10
2023-03-05T21:27:57.388Z,26.97
2023-03-05T21:30:31.530Z,28.43
2023-03-05T21:33:01.076Z,25.90
2023-03-05T21:35:30.239Z,26.07
2023-03-05T21:37:58.506Z,29.00
2023-03-05T21:40:28.332Z,30.03
2023-03-05T21:42:57.031Z,32.07
2023-03-05T21:45:28.736Z,29.10
2023-03-05T21:47:58.779Z,27.57
2023-03-05T21:50:27.986Z,27.97
2023-03-05T21:52:56.533Z,29.30
2023-03-05T21:56:22.220Z,27.20
2023-03-05T21:58:52.815Z,26.87
2023-03-05T22:01:22.070Z,25.97
2023-03-05T22:03:51.240Z,26.53
2023-03-05T22:06:20.139Z,27.27
2023-03-05T22:08:48.920Z,23.33
2023-03-05T22:11:19.320Z,23.43
2023-03-05T22:13:47.825Z,28.47
2023-03-05T22:16:24.448Z,27.47
2023-03-05T22:18:53.132Z,27.33
2023-03-05T22:21:25.214Z,29.97
2023-03-05T22:23:54.303Z,25.53
2023-03-05T22:26:22.609Z,29.83
2023-03-05T22:28:51.335Z,27.27
2023-03-05T22:31:25.721Z,28.37
2023-03-05T22:33:54.697Z,25.70
2023-03-05T22:36:23.224Z,28.97
2023-03-05T22:38:51.699Z,27.77
2023-03-05T22:41:21.507Z,28.93
2023-03-05T22:43:51.075Z,31.83
2023-03-05T22:46:21.327Z,29.13
2023-03-05T22:48:52.060Z,30.80
2023-03-05T22:51:20.851Z,32.97
2023-03-05T22:53:49.410Z,28.87
2023-03-05T22:56:20.623Z,32.30
2023-03-05T22:58:49.481Z,29.17
2023-03-05T23:01:19.813Z,28.60
2023-03-05T23:04:38.820Z,30.63
2023-03-05T23:07:11.790Z,27.90
2023-03-05T23:09:40.758Z,26.30
2023-03-05T23:12:09.837Z,24.27
2023-03-05T23:14:39.194Z,28.23
2023-03-05T23:17:07.555Z,24.10
2023-03-05T23:19:39.710Z,22.83
2023-03-05T23:22:09.661Z,24.90
2023-03-05T23:24:41.392Z,23.77
2023-03-05T23:27:10.860Z,21.77
2023-03-05T23:30:17.326Z,18.93
2023-03-05T23:32:47.621Z,22.10
2023-03-05T23:35:18.301Z,19.73
2023-03-05T23:37:46.756Z,19.47
2023-03-05T23:40:19.383Z,21.40
2023-03-05T23:42:47.675Z,18.60
2023-03-05T23:45:17.076Z,19.00
2023-03-05T23:47:46.084Z,21.53
2023-03-05T23:50:17.035Z,19.37
2023-03-05T23:52:45.776Z,23.30
2023-03-05T23:55:19.450Z,19.57
2023-03-05T23:57:48.357Z,27.20
